createdAt,value
2023-10-10T00:02:21.025Z,14.30
2023-10-10T00:04:49.498Z,17.38
2023-10-10T00:07:20.572Z,14.98
2023-10-10T00:09:48.110Z,14.98
2023-10-10T00:12:20.447Z,16.58
2023-10-10T00:14:52.144Z,15.40
2023-10-10T00:17:22.304Z,14.10
2023-10-10T00:19:53.811Z,17.55
2023-10-10T00:22:28.524Z,13.38
2023-10-10T00:24:56.029Z,13.70
2023-10-10T00:27:25.335Z,17.80
2023-10-10T00:29:55.674Z,16.45
2023-10-10T00:32:26.322Z,17.50
2023-10-10T00:34:54.017Z,16.40
2023-10-10T00:37:23.220Z,17.45
2023-10-10T00:39:53.648Z,17.55
2023-10-10T00:42:23.398Z,15.55
2023-10-10T00:44:51.297Z,21.33
2023-10-10T00:47:23.265Z,16.13
2023-10-10T00:49:51.785Z,20.30
2023-10-10T00:52:19.950Z,14.73
2023-10-10T00:54:48.446Z,16.38
2023-10-10T00:57:17.629Z,16.30
2023-10-10T00:59:46.447Z,15.65
2023-10-10T01:02:18.675Z,17.75
2023-10-10T01:04:49.672Z,16.70
2023-10-10T01:07:20.599Z,21.33
2023-10-10T01:09:52.220Z,16.92
2023-10-10T01:12:19.733Z,16.38
2023-10-10T01:14:48.685Z,15.20
2023-10-10T01:17:16.159Z,21.88
2023-10-10T01:19:51.732Z,15.70
2023-10-10T01:22:22.130Z,15.50
2023-10-10T01:24:55.092Z,15.18
2023-10-10T01:27:24.068Z,17.95
2023-10-10T01:30:13.125Z,16.83
2023-10-10T01:32:41.270Z,16.05
2023-10-10T01:35:18.232Z,16.20
2023-10-10T01:37:56.544Z,17.52
2023-10-10T01:40:25.772Z,18.35
2023-10-10T01:42:55.712Z,16.25
2023-10-10T01:45:25.245Z,19.55
2023-10-10T01:47:56.029Z,17.55
2023-10-10T01:50:24.527Z,17.00
2023-10-10T01:52:51.907Z,18.30
2023-10-10T01:55:19.738Z,18.42
2023-10-10T01:57:47.149Z,18.50
2023-10-10T02:00:18.169Z,16.55
2023-10-10T02:02:45.757Z,17.02
2023-10-10T02:05:18.034Z,16.85
2023-10-10T02:07:50.643Z,17.13
2023-10-10T02:10:20.559Z,19.00
2023-10-10T02:12:48.141Z,14.32
2023-10-10T02:15:20.525Z,17.10
2023-10-10T02:17:53.469Z,16.63
2023-10-10T02:20:35.712Z,16.52
2023-10-10T02:23:03.843Z,18.60
2023-10-10T02:25:34.340Z,17.23
2023-10-10T02:28:05.571Z,17.90
2023-10-10T02:30:36.214Z,15.65
2023-10-10T02:33:14.706Z,17.63
2023-10-10T02:35:56.346Z,16.88
2023-10-10T02:38:33.798Z,16.50
2023-10-10T02:41:09.889Z,16.65
2023-10-10T02:43:47.607Z,14.10
2023-10-10T02:46:19.585Z,14.02
2023-10-10T02:48:47.121Z,15.82
2023-10-10T02:51:17.631Z,17.25
2023-10-10T02:53:48.378Z,15.10
2023-10-10T02:56:20.378Z,16.52
2023-10-10T02:58:51.467Z,13.00
2023-10-10T03:01:22.010Z,13.88
2023-10-10T03:03:49.741Z,16.17
2023-10-10T03:06:18.351Z,17.13
2023-10-10T03:08:53.405Z,14.55
2023-10-10T03:11:23.731Z,14.13
2023-10-10T03:13:59.463Z,14.43
2023-10-10T03:16:27.189Z,13.93
2023-10-10T03:18:57.591Z,13.20
2023-10-10T03:21:27.930Z,13.25
2023-10-10T03:23:57.980Z,12.93
2023-10-10T03:26:28.762Z,15.27
2023-10-10T03:29:05.383Z,13.38
2023-10-10T03:31:40.355Z,12.68
2023-10-10T03:34:10.795Z,15.40
2023-10-10T03:36:45.353Z,12.85
2023-10-10T03:39:19.332Z,15.52
2023-10-10T03:41:49.650Z,13.65
2023-10-10T03:44:20.432Z,11.90
2023-10-10T03:46:51.270Z,16.80
2023-10-10T03:49:21.801Z,12.05
2023-10-10T03:51:52.405Z,15.93
2023-10-10T03:54:22.830Z,12.63
2023-10-10T03:56:53.199Z,16.85
2023-10-10T03:59:23.790Z,13.13
2023-10-10T04:01:55.147Z,15.43
2023-10-10T04:04:25.632Z,13.50
2023-10-10T04:06:56.223Z,14.55
2023-10-10T04:09:26.711Z,10.18
2023-10-10T04:11:57.378Z,15.07
2023-10-10T04:14:27.846Z,12.50
2023-10-10T04:16:58.242Z,13.75
2023-10-10T04:19:28.763Z,14.50
2023-10-10T04:21:59.313Z,12.77
2023-10-10T04:24:29.712Z,13.18
2023-10-10T04:27:00.240Z,13.32
2023-10-10T04:29:30.474Z,15.13
2023-10-10T04:32:00.994Z,13.13
2023-10-10T04:34:32.263Z,15.07
2023-10-10T04:37:02.873Z,17.48
2023-10-10T04:39:33.493Z,12.88
2023-10-10T04:42:03.927Z,16.42
2023-10-10T04:44:34.426Z,12.70
2023-10-10T04:47:04.904Z,11.90
2023-10-10T04:49:35.418Z,10.63
2023-10-10T04:52:05.780Z,15.15
2023-10-10T04:54:38.390Z,13.40
2023-10-10T04:57:09.281Z,14.80
2023-10-10T04:59:43.936Z,10.93
2023-10-10T05:04:45.011Z,11.77
2023-10-10T05:07:15.595Z,15.63
2023-10-10T05:09:46.139Z,14.05
2023-10-10T05:12:16.539Z,15.18
2023-10-10T05:14:47.307Z,12.30
2023-10-10T05:17:18.196Z,13.10
2023-10-10T05:19:48.905Z,15.65
2023-10-10T05:22:19.570Z,15.80
2023-10-10T05:24:51.438Z,11.40
2023-10-10T05:27:19.262Z,12.57
2023-10-10T05:29:49.077Z,13.40
2023-10-10T05:32:16.526Z,14.75
2023-10-10T05:34:43.914Z,12.27
2023-10-10T05:37:11.345Z,12.65
2023-10-10T05:39:42.700Z,13.07
2023-10-10T05:42:10.315Z,11.25
2023-10-10T05:44:40.573Z,12.63
2023-10-10T05:47:08.147Z,10.68
2023-10-10T05:52:03.636Z,14.95
2023-10-10T05:54:31.419Z,9.82
2023-10-10T05:57:01.802Z,14.43
2023-10-10T05:59:30.276Z,15.65
2023-10-10T06:01:57.870Z,12.68
2023-10-10T06:04:25.277Z,14.07
2023-10-10T06:06:53.829Z,13.80
2023-10-10T06:09:21.504Z,14.82
2023-10-10T06:11:51.385Z,11.00
2023-10-10T06:14:21.677Z,18.58
2023-10-10T06:16:49.035Z,11.05
2023-10-10T06:19:22.839Z,16.88
2023-10-10T06:21:53.721Z,12.55
2023-10-10T06:24:21.200Z,14.18
2023-10-10T06:26:51.115Z,12.05
2023-10-10T06:29:18.612Z,13.80
2023-10-10T06:31:50.755Z,13.02
2023-10-10T06:34:21.977Z,14.23
2023-10-10T06:36:49.678Z,11.25
2023-10-10T06:39:17.989Z,13.25
2023-10-10T06:41:49.005Z,15.23
2023-10-10T06:44:19.490Z,12.75
2023-10-10T06:46:50.268Z,11.77
2023-10-10T06:49:19.930Z,11.02
2023-10-10T06:51:48.315Z,11.82
2023-10-10T06:54:18.944Z,13.00
2023-10-10T06:56:46.747Z,11.23
2023-10-10T06:59:17.827Z,10.93
2023-10-10T07:01:47.655Z,12.38
2023-10-10T07:04:16.294Z,11.25
2023-10-10T07:06:46.639Z,12.13
2023-10-10T07:09:16.794Z,11.27
2023-10-10T07:11:44.543Z,12.10
2023-10-10T07:14:28.715Z,12.20
2023-10-10T07:16:58.654Z,12.32
2023-10-10T07:19:32.064Z,12.98
2023-10-10T07:22:05.194Z,10.60
2023-10-10T07:24:42.374Z,17.27
2023-10-10T07:27:42.055Z,10.57
2023-10-10T07:30:18.375Z,16.05
2023-10-10T07:32:55.966Z,14.48
2023-10-10T07:35:29.716Z,11.82
2023-10-10T07:38:01.238Z,18.30
2023-10-10T07:40:32.505Z,14.90
2023-10-10T07:43:05.161Z,15.30
2023-10-10T07:45:45.624Z,11.82
2023-10-10T07:48:21.010Z,13.75
2023-10-10T07:51:03.875Z,14.45
2023-10-10T07:53:35.935Z,15.43
2023-10-10T07:56:05.717Z,20.83
2023-10-10T07:58:51.232Z,15.82
2023-10-10T08:01:20.048Z,20.33
2023-10-10T08:03:48.838Z,15.07
2023-10-10T08:08:46.173Z,15.10
2023-10-10T08:11:14.989Z,18.13
2023-10-10T08:13:50.181Z,13.82
2023-10-10T08:16:22.566Z,16.25
2023-10-10T08:21:18.263Z,15.88
2023-10-10T08:23:46.087Z,16.02
2023-10-10T08:26:19.852Z,22.08
2023-10-10T08:28:49.060Z,16.58
2023-10-10T08:31:17.468Z,18.23
2023-10-10T08:33:48.381Z,16.25
2023-10-10T08:36:21.636Z,14.75
2023-10-10T08:38:48.898Z,17.05
2023-10-10T08:41:21.636Z,22.27
2023-10-10T08:46:28.761Z,14.57
2023-10-10T08:48:57.652Z,13.68
2023-10-10T08:53:55.054Z,13.52
2023-10-10T08:56:22.518Z,22.70
2023-10-10T08:58:52.475Z,14.43
2023-10-10T09:01:34.739Z,11.85
2023-10-10T09:04:06.125Z,16.67
2023-10-10T09:06:58.525Z,17.98
2023-10-10T09:09:36.384Z,13.97
2023-10-10T09:12:05.325Z,12.18
2023-10-10T09:14:51.715Z,11.77
2023-10-10T09:17:40.181Z,14.15
2023-10-10T09:20:19.480Z,14.55
2023-10-10T09:22:53.392Z,10.70
2023-10-10T09:25:23.972Z,12.13
2023-10-10T09:28:01.371Z,12.13
2023-10-10T09:30:36.176Z,11.02
2023-10-10T09:33:23.514Z,10.82
2023-10-10T09:36:09.973Z,10.57
2023-10-10T09:38:39.195Z,13.30
2023-10-10T09:41:15.749Z,16.13
2023-10-10T09:44:16.730Z,11.50
2023-10-10T09:47:03.347Z,12.13
2023-10-10T09:49:38.716Z,10.95
2023-10-10T09:52:24.513Z,10.45
2023-10-10T09:54:56.767Z,10.07
2023-10-10T09:57:28.322Z,10.98
2023-10-10T10:00:03.911Z,11.25
2023-10-10T10:02:42.330Z,10.00
2023-10-10T10:05:30.817Z,11.68
2023-10-10T10:08:23.291Z,8.73
2023-10-10T10:10:57.340Z,9.82
2023-10-10T10:13:39.788Z,9.88
2023-10-10T10:16:45.919Z,10.85
2023-10-10T10:19:19.116Z,12.38
2023-10-10T10:21:58.060Z,8.93
2023-10-10T10:24:32.461Z,12.95
2023-10-10T10:27:35.607Z,11.80
2023-10-10T10:30:20.125Z,13.02
2023-10-10T10:32:48.633Z,10.30
2023-10-10T10:36:07.710Z,6.80
2023-10-10T10:38:40.945Z,7.40
2023-10-10T10:41:19.109Z,8.68
2023-10-10T10:43:52.540Z,10.90
2023-10-10T10:46:29.556Z,10.20
2023-10-10T10:49:07.333Z,9.00
2023-10-10T10:51:43.075Z,6.18
2023-10-10T10:54:10.765Z,7.15
2023-10-10T10:56:37.753Z,8.02
2023-10-10T10:59:17.290Z,7.28
2023-10-10T11:01:53.948Z,6.00
2023-10-10T11:04:41.211Z,11.10
2023-10-10T11:07:16.938Z,9.35
2023-10-10T11:09:54.672Z,7.70
2023-10-10T11:12:34.286Z,11.07
2023-10-10T11:15:10.439Z,5.90
2023-10-10T11:17:41.587Z,6.75
2023-10-10T11:20:31.059Z,11.75
2023-10-10T11:23:13.025Z,6.07
2023-10-10T11:25:48.114Z,11.88
2023-10-10T11:28:26.133Z,14.10
2023-10-10T11:30:55.310Z,9.88
2023-10-10T11:33:49.918Z,6.93
2023-10-10T11:36:31.178Z,7.90
2023-10-10T11:39:16.546Z,11.15
2023-10-10T11:41:43.746Z,5.55
2023-10-10T11:44:10.653Z,9.02
2023-10-10T11:46:40.376Z,5.38
2023-10-10T11:49:16.611Z,4.35
2023-10-10T11:51:44.193Z,8.23
2023-10-10T11:54:11.194Z,7.68
2023-10-10T11:56:41.240Z,11.65
2023-10-10T11:59:15.730Z,9.25
2023-10-10T12:01:55.883Z,8.05
2023-10-10T12:04:32.925Z,9.27
2023-10-10T12:07:06.073Z,8.57
2023-10-10T12:09:34.546Z,8.52
2023-10-10T12:12:04.984Z,15.35
2023-10-10T12:14:32.811Z,11.90
2023-10-10T12:17:00.528Z,10.05
2023-10-10T12:19:37.610Z,6.28
2023-10-10T12:22:23.625Z,10.52
2023-10-10T12:24:52.104Z,7.30
2023-10-10T12:27:19.203Z,9.00
2023-10-10T12:29:49.580Z,10.13
2023-10-10T12:32:28.592Z,10.45
2023-10-10T12:34:55.710Z,12.05
2023-10-10T12:37:24.888Z,9.50
2023-10-10T12:39:53.879Z,13.63
2023-10-10T12:42:25.943Z,11.82
2023-10-10T12:44:53.006Z,8.57
2023-10-10T12:47:21.236Z,10.40
2023-10-10T12:49:48.399Z,12.30
2023-10-10T12:52:34.081Z,7.90
2023-10-10T12:55:01.120Z,15.15
2023-10-10T12:57:34.544Z,13.57
2023-10-10T13:00:21.727Z,11.23
2023-10-10T13:02:49.263Z,13.73
2023-10-10T13:05:18.149Z,12.18
2023-10-10T13:07:45.264Z,13.80
2023-10-10T13:10:12.241Z,10.77
2023-10-10T13:12:39.218Z,13.73
2023-10-10T13:15:18.021Z,13.80
2023-10-10T13:17:55.241Z,9.57
2023-10-10T13:20:23.472Z,11.02
2023-10-10T13:22:52.094Z,10.38
2023-10-10T13:25:20.667Z,10.07
2023-10-10T13:27:47.957Z,10.07
2023-10-10T13:30:15.468Z,9.30
2023-10-10T13:32:44.080Z,12.05
2023-10-10T13:35:11.682Z,11.00
2023-10-10T13:37:42.854Z,8.85
2023-10-10T13:40:11.412Z,10.38
2023-10-10T13:42:41.977Z,15.38
2023-10-10T13:45:13.541Z,9.75
2023-10-10T13:47:42.207Z,11.90
2023-10-10T13:50:29.919Z,7.90
2023-10-10T13:52:56.999Z,8.68
2023-10-10T13:55:24.700Z,8.55
2023-10-10T13:57:51.572Z,9.13
2023-10-10T14:00:31.240Z,8.85
2023-10-10T14:03:05.507Z,9.63
2023-10-10T14:05:43.084Z,8.80
2023-10-10T14:08:11.738Z,6.85
2023-10-10T14:10:40.584Z,9.23
2023-10-10T14:13:20.635Z,9.25
2023-10-10T14:15:56.185Z,12.88
2023-10-10T14:18:33.539Z,7.20
2023-10-10T14:21:09.777Z,8.40
2023-10-10T14:23:37.375Z,9.80
2023-10-10T14:26:20.236Z,10.40
2023-10-10T14:28:52.172Z,11.13
2023-10-10T14:31:23.902Z,8.90
2023-10-10T14:34:01.252Z,10.38
2023-10-10T14:36:32.390Z,6.78
2023-10-10T14:39:01.662Z,7.93
2023-10-10T14:41:31.756Z,6.65
2023-10-10T14:44:02.041Z,7.43
2023-10-10T14:46:33.732Z,5.75
2023-10-10T14:49:18.795Z,9.80
2023-10-10T14:51:51.784Z,11.45
2023-10-10T14:54:19.346Z,10.48
2023-10-10T14:56:53.204Z,11.65
2023-10-10T14:59:33.277Z,10.88
2023-10-10T15:02:01.699Z,7.45
2023-10-10T15:04:32.088Z,8.85
2023-10-10T15:07:00.215Z,7.60
2023-10-10T15:09:27.382Z,8.18
2023-10-10T15:12:03.321Z,7.82
2023-10-10T15:14:33.899Z,8.13
2023-10-10T15:17:02.353Z,8.07
2023-10-10T15:19:29.438Z,11.95
2023-10-10T15:21:57.808Z,10.25
2023-10-10T15:24:25.375Z,9.43
2023-10-10T15:26:53.203Z,9.98
2023-10-10T15:29:22.827Z,12.13
2023-10-10T15:31:52.112Z,9.63
2023-10-10T15:34:19.634Z,10.55
2023-10-10T15:36:47.549Z,10.68
2023-10-10T15:39:16.115Z,11.77
2023-10-10T15:41:44.680Z,12.23
2023-10-10T15:44:14.214Z,13.27
2023-10-10T15:46:43.958Z,18.17
2023-10-10T15:49:21.128Z,18.98
2023-10-10T15:51:54.240Z,10.48
2023-10-10T15:54:21.746Z,8.32
2023-10-10T15:56:48.783Z,11.82
2023-10-10T15:59:18.895Z,7.68
2023-10-10T16:01:48.466Z,11.13
2023-10-10T16:04:15.577Z,12.10
2023-10-10T16:06:44.008Z,8.77
2023-10-10T16:09:13.055Z,15.90
2023-10-10T16:11:41.888Z,9.35
2023-10-10T16:14:15.684Z,7.82
2023-10-10T16:16:45.662Z,13.48
2023-10-10T16:19:22.746Z,12.27
2023-10-10T16:21:50.771Z,10.20
2023-10-10T16:24:18.215Z,9.32
2023-10-10T16:26:46.977Z,8.35
2023-10-10T16:29:16.802Z,8.88
2023-10-10T16:31:45.281Z,9.48
2023-10-10T16:34:13.405Z,6.40
2023-10-10T16:36:40.634Z,6.47
2023-10-10T16:39:12.406Z,11.73
2023-10-10T16:41:39.683Z,6.78
2023-10-10T16:44:07.044Z,6.78
2023-10-10T16:46:34.122Z,6.90
2023-10-10T16:49:01.157Z,11.52
2023-10-10T16:51:28.681Z,7.75
2023-10-10T16:53:56.841Z,8.65
2023-10-10T16:56:23.973Z,9.48
2023-10-10T16:58:51.470Z,8.00
2023-10-10T17:01:22.190Z,9.85
2023-10-10T17:03:51.640Z,10.15
2023-10-10T17:06:24.265Z,7.45
2023-10-10T17:11:22.824Z,11.63
2023-10-10T17:13:51.500Z,7.00
2023-10-10T17:16:30.272Z,8.63
2023-10-10T17:19:14.632Z,9.38
2023-10-10T17:21:47.890Z,8.43
2023-10-10T17:24:20.293Z,9.07
2023-10-10T17:26:47.495Z,8.70
2023-10-10T17:29:14.566Z,8.43
2023-10-10T17:31:41.623Z,8.70
2023-10-10T17:34:08.937Z,11.15
2023-10-10T17:36:41.543Z,10.65
2023-10-10T17:39:10.596Z,8.10
2023-10-10T17:41:37.651Z,7.70
2023-10-10T17:44:10.960Z,13.43
2023-10-10T17:46:38.611Z,10.85
2023-10-10T17:49:06.700Z,7.70
2023-10-10T17:51:35.466Z,8.48
2023-10-10T17:54:03.945Z,9.23
2023-10-10T17:56:33.101Z,9.77
2023-10-10T17:59:01.806Z,10.07
2023-10-10T18:01:30.431Z,12.50
2023-10-10T18:03:57.707Z,9.82
2023-10-10T18:06:27.787Z,11.55
2023-10-10T18:08:57.171Z,11.48
2023-10-10T18:11:27.700Z,13.77
2023-10-10T18:13:54.870Z,11.45
2023-10-10T18:16:23.099Z,12.52
2023-10-10T18:18:51.725Z,12.88
2023-10-10T18:21:21.151Z,10.82
2023-10-10T18:23:48.614Z,13.57
2023-10-10T18:26:18.068Z,10.00
2023-10-10T18:28:45.424Z,13.50
2023-10-10T18:31:24.142Z,14.35
2023-10-10T18:33:53.524Z,12.65
2023-10-10T18:36:21.729Z,13.35
2023-10-10T18:38:49.761Z,10.68
2023-10-10T18:41:24.626Z,11.27
2023-10-10T18:43:52.473Z,11.52
2023-10-10T18:46:19.755Z,12.48
2023-10-10T18:48:47.200Z,10.57
2023-10-10T18:51:15.619Z,11.25
2023-10-10T18:53:43.937Z,10.43
2023-10-10T18:56:10.995Z,13.50
2023-10-10T18:58:40.181Z,13.43
2023-10-10T19:01:11.495Z,11.70
2023-10-10T19:03:48.473Z,11.02
2023-10-10T19:06:16.785Z,13.40
2023-10-10T19:08:46.566Z,12.48
2023-10-10T19:11:25.074Z,11.80
2023-10-10T19:13:52.107Z,16.23
2023-10-10T19:16:19.616Z,10.25
2023-10-10T19:18:47.334Z,11.90
2023-10-10T19:21:19.056Z,20.30
2023-10-10T19:23:51.606Z,11.98
2023-10-10T19:26:20.178Z,15.35
2023-10-10T19:28:54.864Z,14.23
2023-10-10T19:31:23.432Z,15.50
2023-10-10T19:33:50.653Z,13.30
2023-10-10T19:36:17.840Z,12.60
2023-10-10T19:38:44.853Z,11.10
2023-10-10T19:41:15.665Z,13.13
2023-10-10T19:43:42.834Z,14.15
2023-10-10T19:46:12.814Z,13.52
2023-10-10T19:48:43.818Z,13.45
2023-10-10T19:51:18.664Z,14.23
2023-10-10T19:53:47.050Z,15.55
2023-10-10T19:56:14.053Z,17.65
2023-10-10T19:58:43.283Z,15.32
2023-10-10T20:01:10.547Z,15.45
2023-10-10T20:03:37.860Z,14.40
2023-10-10T20:06:08.347Z,19.70
2023-10-10T20:08:36.237Z,18.90
2023-10-10T20:11:05.017Z,14.43
2023-10-10T20:13:32.035Z,16.02
2023-10-10T20:15:58.959Z,14.38
2023-10-10T20:18:26.636Z,13.95
2023-10-10T20:20:53.668Z,14.40
2023-10-10T20:23:22.046Z,22.25
2023-10-10T20:25:52.617Z,21.55
2023-10-10T20:28:19.711Z,20.38
2023-10-10T20:30:47.175Z,15.35
2023-10-10T20:33:17.902Z,18.90
2023-10-10T20:35:46.606Z,18.23
2023-10-10T20:38:16.115Z,15.07
2023-10-10T20:40:44.744Z,15.60
2023-10-10T20:43:14.776Z,15.15
2023-10-10T20:45:41.959Z,20.30
2023-10-10T20:48:17.105Z,16.58
2023-10-10T20:50:45.730Z,20.02
2023-10-10T20:53:13.605Z,17.70
2023-10-10T20:55:42.906Z,12.98
2023-10-10T20:58:12.335Z,19.77
2023-10-10T21:00:40.075Z,18.75
2023-10-10T21:03:10.886Z,17.75
2023-10-10T21:05:45.928Z,17.27
2023-10-10T21:08:14.934Z,12.77
2023-10-10T21:10:42.092Z,15.68
2023-10-10T21:13:09.775Z,18.50
2023-10-10T21:15:37.048Z,19.98
2023-10-10T21:18:09.732Z,17.27
2023-10-10T21:20:56.408Z,18.70
2023-10-10T21:23:28.595Z,19.20
2023-10-10T21:25:55.637Z,13.10
2023-10-10T21:28:23.335Z,15.45
2023-10-10T21:30:50.505Z,17.42
2023-10-10T21:33:17.775Z,24.08
2023-10-10T21:35:45.858Z,18.75
2023-10-10T21:38:12.851Z,16.80
2023-10-10T21:40:41.504Z,14.65
2023-10-10T21:43:08.740Z,19.75
2023-10-10T21:45:40.469Z,18.50
2023-10-10T21:48:11.669Z,13.87
2023-10-10T21:50:42.196Z,18.60
2023-10-10T21:53:09.504Z,16.77
2023-10-10T21:55:38.755Z,18.42
2023-10-10T21:58:06.634Z,16.38
2023-10-10T22:00:33.934Z,17.23
2023-10-10T22:03:06.247Z,16.75
2023-10-10T22:05:34.503Z,17.38
2023-10-10T22:08:05.848Z,20.10
2023-10-10T22:10:34.495Z,17.80
2023-10-10T22:13:02.773Z,21.17
2023-10-10T22:15:30.150Z,16.38
2023-10-10T22:17:58.024Z,17.90
2023-10-10T22:20:29.223Z,21.30
2023-10-10T22:22:56.236Z,20.30
2023-10-10T22:25:23.798Z,22.73
2023-10-10T22:27:53.869Z,25.40
2023-10-10T22:30:28.305Z,21.30
2023-10-10T22:32:59.871Z,16.20
2023-10-10T22:35:28.977Z,16.92
2023-10-10T22:37:59.295Z,22.33
2023-10-10T22:40:27.123Z,20.80
2023-10-10T22:43:03.181Z,19.83
2023-10-10T22:45:34.617Z,19.90
2023-10-10T22:48:03.294Z,20.15
2023-10-10T22:50:33.772Z,17.08
2023-10-10T22:53:03.292Z,21.38
2023-10-10T22:55:35.151Z,21.25
2023-10-10T22:58:08.907Z,22.92
2023-10-10T23:00:40.026Z,21.30
2023-10-10T23:03:12.410Z,21.02
2023-10-10T23:05:44.421Z,31.15
2023-10-10T23:08:12.546Z,19.15
2023-10-10T23:10:41.263Z,19.38
2023-10-10T23:13:08.811Z,21.60
2023-10-10T23:15:39.016Z,22.67
2023-10-10T23:18:14.928Z,25.60
2023-10-10T23:20:43.006Z,22.25
2023-10-10T23:23:12.072Z,18.30
2023-10-10T23:25:39.531Z,21.95
2023-10-10T23:28:10.067Z,22.33
2023-10-10T23:30:40.742Z,20.85
2023-10-10T23:33:17.774Z,20.90
2023-10-10T23:35:50.041Z,24.88
2023-10-10T23:38:17.634Z,19.67
2023-10-10T23:40:51.677Z,19.75
2023-10-10T23:43:22.787Z,24.23
2023-10-10T23:45:58.656Z,32.17
2023-10-10T23:48:32.334Z,24.48
2023-10-10T23:51:00.797Z,26.00
2023-10-10T23:53:28.094Z,17.92
2023-10-10T23:56:00.841Z,23.98
2023-10-10T23:58:29.152Z,22.52
